sensor_id;sensor_type;location;lat;lon;timestamp;temperature;humidity
22698;DHT22;11516;51.612;7.510;2023-05-07T00:01:33;13.90;99.90
22698;DHT22;11516;51.612;7.510;2023-05-07T00:03:58;14.00;99.90
22698;DHT22;11516;51.612;7.510;2023-05-07T00:06:24;14.00;99.90
22698;DHT22;11516;51.612;7.510;2023-05-07T00:08:51;14.00;99.90
22698;DHT22;11516;51.612;7.510;2023-05-07T00:11:16;14.00;99.90
22698;DHT22;11516;51.612;7.510;2023-05-07T00:13:42;14.00;99.90
22698;DHT22;11516;51.612;7.510;2023-05-07T00:16:07;14.00;99.90
22698;DHT22;11516;51.612;7.510;2023-05-07T00:18:33;14.00;99.90
22698;DHT22;11516;51.612;7.510;2023-05-07T00:20:58;14.00;99.90
22698;DHT22;11516;51.612;7.510;2023-05-07T00:23:24;14.00;99.90
22698;DHT22;11516;51.612;7.510;2023-05-07T00:25:49;14.00;99.90
22698;DHT22;11516;51.612;7.510;2023-05-07T00:28:15;14.00;99.90
22698;DHT22;11516;51.612;7.510;2023-05-07T00:30:41;14.00;99.90
22698;DHT22;11516;51.612;7.510;2023-05-07T00:33:06;14.00;99.90
22698;DHT22;11516;51.612;7.510;2023-05-07T00:35:32;14.00;99.90
22698;DHT22;11516;51.612;7.510;2023-05-07T00:37:57;14.00;99.90
22698;DHT22;11516;51.612;7.510;2023-05-07T00:40:23;14.00;99.90
22698;DHT22;11516;51.612;7.510;2023-05-07T00:42:49;14.10;99.90
22698;DHT22;11516;51.612;7.510;2023-05-07T00:45:15;14.00;99.90
22698;DHT22;11516;51.612;7.510;2023-05-07T00:47:43;13.90;99.90
22698;DHT22;11516;51.612;7.510;2023-05-07T00:50:09;14.00;99.90
22698;DHT22;11516;51.612;7.510;2023-05-07T00:52:36;14.00;99.90
22698;DHT22;11516;51.612;7.510;2023-05-07T00:55:05;14.00;99.90
22698;DHT22;11516;51.612;7.510;2023-05-07T00:57:37;14.00;99.90
22698;DHT22;11516;51.612;7.510;2023-05-07T01:00:05;14.00;99.90
22698;DHT22;11516;51.612;7.510;2023-05-07T01:02:30;14.10;99.90
22698;DHT22;11516;51.612;7.510;2023-05-07T01:04:56;14.00;99.90
22698;DHT22;11516;51.612;7.510;2023-05-07T01:07:22;14.00;99.90
22698;DHT22;11516;51.612;7.510;2023-05-07T01:09:48;14.00;99.90
22698;DHT22;11516;51.612;7.510;2023-05-07T01:12:15;14.00;99.90
22698;DHT22;11516;51.612;7.510;2023-05-07T01:14:41;14.00;99.90
22698;DHT22;11516;51.612;7.510;2023-05-07T01:17:07;14.00;99.90
22698;DHT22;11516;51.612;7.510;2023-05-07T01:19:33;14.00;99.90
22698;DHT22;11516;51.612;7.510;2023-05-07T01:22:09;14.00;99.90
22698;DHT22;11516;51.612;7.510;2023-05-07T01:24:37;14.00;99.90
22698;DHT22;11516;51.612;7.510;2023-05-07T01:27:03;14.00;99.90
22698;DHT22;11516;51.612;7.510;2023-05-07T01:29:29;14.00;99.90
22698;DHT22;11516;51.612;7.510;2023-05-07T01:31:57;14.00;99.90
22698;DHT22;11516;51.612;7.510;2023-05-07T01:34:25;14.00;99.90
22698;DHT22;11516;51.612;7.510;2023-05-07T01:36:53;14.00;99.90
22698;DHT22;11516;51.612;7.510;2023-05-07T01:39:20;14.00;99.90
22698;DHT22;11516;51.612;7.510;2023-05-07T01:41:47;14.00;99.90
22698;DHT22;11516;51.612;7.510;2023-05-07T01:44:12;14.00;99.90
22698;DHT22;11516;51.612;7.510;2023-05-07T01:46:38;14.00;99.90
22698;DHT22;11516;51.612;7.510;2023-05-07T01:49:04;14.00;99.90
22698;DHT22;11516;51.612;7.510;2023-05-07T01:51:30;13.90;99.90
22698;DHT22;11516;51.612;7.510;2023-05-07T01:53:56;13.90;99.90
22698;DHT22;11516;51.612;7.510;2023-05-07T01:56:24;13.90;99.90
22698;DHT22;11516;51.612;7.510;2023-05-07T01:58:50;13.90;99.90
22698;DHT22;11516;51.612;7.510;2023-05-07T02:01:17;13.90;99.90
22698;DHT22;11516;51.612;7.510;2023-05-07T02:03:42;13.80;99.90
22698;DHT22;11516;51.612;7.510;2023-05-07T02:06:08;13.80;99.90
22698;DHT22;11516;51.612;7.510;2023-05-07T02:08:33;13.80;99.90
22698;DHT22;11516;51.612;7.510;2023-05-07T02:10:59;13.90;99.90
22698;DHT22;11516;51.612;7.510;2023-05-07T02:13:26;13.90;99.90
22698;DHT22;11516;51.612;7.510;2023-05-07T02:15:52;13.90;99.90
22698;DHT22;11516;51.612;7.510;2023-05-07T02:18:18;13.90;99.90
22698;DHT22;11516;51.612;7.510;2023-05-07T02:20:44;13.90;99.90
22698;DHT22;11516;51.612;7.510;2023-05-07T02:23:09;13.90;99.90
22698;DHT22;11516;51.612;7.510;2023-05-07T02:25:35;13.90;99.90
22698;DHT22;11516;51.612;7.510;2023-05-07T02:28:00;13.80;99.90
22698;DHT22;11516;51.612;7.510;2023-05-07T02:30:26;13.80;99.90
22698;DHT22;11516;51.612;7.510;2023-05-07T02:32:52;13.80;99.90
22698;DHT22;11516;51.612;7.510;2023-05-07T02:35:17;13.80;99.90
22698;DHT22;11516;51.612;7.510;2023-05-07T02:37:43;13.80;99.90
22698;DHT22;11516;51.612;7.510;2023-05-07T02:40:09;13.80;99.90
22698;DHT22;11516;51.612;7.510;2023-05-07T02:42:35;13.80;99.90
22698;DHT22;11516;51.612;7.510;2023-05-07T02:45:00;13.70;99.90
22698;DHT22;11516;51.612;7.510;2023-05-07T02:47:26;13.80;99.90
22698;DHT22;11516;51.612;7.510;2023-05-07T02:49:54;13.70;99.90
22698;DHT22;11516;51.612;7.510;2023-05-07T02:52:20;13.70;99.90
22698;DHT22;11516;51.612;7.510;2023-05-07T02:54:46;13.70;99.90
22698;DHT22;11516;51.612;7.510;2023-05-07T02:57:11;13.70;99.90
22698;DHT22;11516;51.612;7.510;2023-05-07T02:59:37;13.70;99.90
22698;DHT22;11516;51.612;7.510;2023-05-07T03:02:02;13.70;99.90
22698;DHT22;11516;51.612;7.510;2023-05-07T03:04:28;13.70;99.90
22698;DHT22;11516;51.612;7.510;2023-05-07T03:06:53;13.70;99.90
22698;DHT22;11516;51.612;7.510;2023-05-07T03:09:20;13.70;99.90
22698;DHT22;11516;51.612;7.510;2023-05-07T03:11:45;13.60;99.90
22698;DHT22;11516;51.612;7.510;2023-05-07T03:14:11;13.70;99.90
22698;DHT22;11516;51.612;7.510;2023-05-07T03:16:37;13.70;99.90
22698;DHT22;11516;51.612;7.510;2023-05-07T03:19:02;13.70;99.90
22698;DHT22;11516;51.612;7.510;2023-05-07T03:21:28;13.70;99.90
22698;DHT22;11516;51.612;7.510;2023-05-07T03:23:53;13.70;99.90
22698;DHT22;11516;51.612;7.510;2023-05-07T03:26:19;13.70;99.90
22698;DHT22;11516;51.612;7.510;2023-05-07T03:28:45;13.70;99.90
22698;DHT22;11516;51.612;7.510;2023-05-07T03:31:11;13.70;99.90
22698;DHT22;11516;51.612;7.510;2023-05-07T03:33:49;13.60;99.90
22698;DHT22;11516;51.612;7.510;2023-05-07T03:36:15;13.60;99.90
22698;DHT22;11516;51.612;7.510;2023-05-07T03:38:40;13.60;99.90
22698;DHT22;11516;51.612;7.510;2023-05-07T03:41:06;13.70;99.90
22698;DHT22;11516;51.612;7.510;2023-05-07T03:43:31;13.60;99.90
22698;DHT22;11516;51.612;7.510;2023-05-07T03:45:57;13.60;99.90
22698;DHT22;11516;51.612;7.510;2023-05-07T03:48:22;13.60;99.90
22698;DHT22;11516;51.612;7.510;2023-05-07T03:50:48;13.60;99.90
22698;DHT22;11516;51.612;7.510;2023-05-07T03:53:14;13.60;99.90
22698;DHT22;11516;51.612;7.510;2023-05-07T03:55:39;13.60;99.90
22698;DHT22;11516;51.612;7.510;2023-05-07T03:58:05;13.60;99.90
22698;DHT22;11516;51.612;7.510;2023-05-07T04:00:30;13.60;99.90
22698;DHT22;11516;51.612;7.510;2023-05-07T04:02:58;13.60;99.90
22698;DHT22;11516;51.612;7.510;2023-05-07T04:05:24;13.60;99.90
22698;DHT22;11516;51.612;7.510;2023-05-07T04:07:50;13.60;99.90
22698;DHT22;11516;51.612;7.510;2023-05-07T04:10:15;13.60;99.90
22698;DHT22;11516;51.612;7.510;2023-05-07T04:12:44;13.50;99.90
22698;DHT22;11516;51.612;7.510;2023-05-07T04:15:11;13.60;99.90
22698;DHT22;11516;51.612;7.510;2023-05-07T04:17:38;13.60;99.90
22698;DHT22;11516;51.612;7.510;2023-05-07T04:20:06;13.60;99.90
22698;DHT22;11516;51.612;7.510;2023-05-07T04:22:33;13.60;99.90
22698;DHT22;11516;51.612;7.510;2023-05-07T04:24:59;13.60;99.90
22698;DHT22;11516;51.612;7.510;2023-05-07T04:27:25;13.60;99.90
22698;DHT22;11516;51.612;7.510;2023-05-07T04:29:51;13.60;99.90
22698;DHT22;11516;51.612;7.510;2023-05-07T04:32:21;13.60;99.90
22698;DHT22;11516;51.612;7.510;2023-05-07T04:34:46;13.60;99.90
22698;DHT22;11516;51.612;7.510;2023-05-07T04:37:12;13.70;99.90
22698;DHT22;11516;51.612;7.510;2023-05-07T04:39:37;13.70;99.90
22698;DHT22;11516;51.612;7.510;2023-05-07T04:42:03;13.70;99.90
22698;DHT22;11516;51.612;7.510;2023-05-07T04:44:28;13.70;99.90
22698;DHT22;11516;51.612;7.510;2023-05-07T04:46:56;13.70;99.90
22698;DHT22;11516;51.612;7.510;2023-05-07T04:49:22;13.80;99.90
22698;DHT22;11516;51.612;7.510;2023-05-07T04:51:47;13.80;99.90
22698;DHT22;11516;51.612;7.510;2023-05-07T04:54:13;13.90;99.90
22698;DHT22;11516;51.612;7.510;2023-05-07T04:56:38;13.90;99.90
22698;DHT22;11516;51.612;7.510;2023-05-07T04:59:04;13.90;99.90
22698;DHT22;11516;51.612;7.510;2023-05-07T05:01:29;13.90;99.90
22698;DHT22;11516;51.612;7.510;2023-05-07T05:03:55;13.90;99.90
22698;DHT22;11516;51.612;7.510;2023-05-07T05:06:20;13.90;99.90
22698;DHT22;11516;51.612;7.510;2023-05-07T05:08:46;14.10;99.90
22698;DHT22;11516;51.612;7.510;2023-05-07T05:11:11;14.10;99.90
22698;DHT22;11516;51.612;7.510;2023-05-07T05:13:37;14.20;99.90
22698;DHT22;11516;51.612;7.510;2023-05-07T05:16:03;14.20;99.90
22698;DHT22;11516;51.612;7.510;2023-05-07T05:18:28;14.20;99.90
22698;DHT22;11516;51.612;7.510;2023-05-07T05:20:54;14.20;99.90
22698;DHT22;11516;51.612;7.510;2023-05-07T05:23:19;14.30;99.90
22698;DHT22;11516;51.612;7.510;2023-05-07T05:25:45;14.40;99.90
22698;DHT22;11516;51.612;7.510;2023-05-07T05:28:11;14.40;99.90
22698;DHT22;11516;51.612;7.510;2023-05-07T05:30:36;14.40;99.90
22698;DHT22;11516;51.612;7.510;2023-05-07T05:33:02;14.40;99.90
22698;DHT22;11516;51.612;7.510;2023-05-07T05:35:27;14.40;99.90
22698;DHT22;11516;51.612;7.510;2023-05-07T05:37:53;14.40;99.90
22698;DHT22;11516;51.612;7.510;2023-05-07T05:40:18;14.40;99.90
22698;DHT22;11516;51.612;7.510;2023-05-07T05:42:44;14.40;99.90
22698;DHT22;11516;51.612;7.510;2023-05-07T05:45:10;14.40;99.90
22698;DHT22;11516;51.612;7.510;2023-05-07T05:47:37;14.30;99.90
22698;DHT22;11516;51.612;7.510;2023-05-07T05:50:04;14.40;99.90
22698;DHT22;11516;51.612;7.510;2023-05-07T05:52:31;14.30;99.90
22698;DHT22;11516;51.612;7.510;2023-05-07T05:54:56;14.30;99.90
22698;DHT22;11516;51.612;7.510;2023-05-07T05:57:22;14.30;99.90
22698;DHT22;11516;51.612;7.510;2023-05-07T05:59:47;14.30;99.90
22698;DHT22;11516;51.612;7.510;2023-05-07T06:02:13;14.30;99.90
22698;DHT22;11516;51.612;7.510;2023-05-07T06:04:39;14.30;99.90
22698;DHT22;11516;51.612;7.510;2023-05-07T06:07:05;14.40;99.90
22698;DHT22;11516;51.612;7.510;2023-05-07T06:09:30;14.60;99.90
22698;DHT22;11516;51.612;7.510;2023-05-07T06:11:56;14.70;99.90
22698;DHT22;11516;51.612;7.510;2023-05-07T06:14:21;14.70;99.90
22698;DHT22;11516;51.612;7.510;2023-05-07T06:16:47;14.70;99.90
22698;DHT22;11516;51.612;7.510;2023-05-07T06:19:12;14.70;99.90
22698;DHT22;11516;51.612;7.510;2023-05-07T06:21:39;14.70;99.90
22698;DHT22;11516;51.612;7.510;2023-05-07T06:24:04;14.70;99.90
22698;DHT22;11516;51.612;7.510;2023-05-07T06:26:30;14.70;99.90
22698;DHT22;11516;51.612;7.510;2023-05-07T06:28:56;14.70;99.90
22698;DHT22;11516;51.612;7.510;2023-05-07T06:31:21;14.70;99.90
22698;DHT22;11516;51.612;7.510;2023-05-07T06:33:47;14.60;99.90
22698;DHT22;11516;51.612;7.510;2023-05-07T06:36:13;14.80;99.90
22698;DHT22;11516;51.612;7.510;2023-05-07T06:38:39;14.80;99.90
22698;DHT22;11516;51.612;7.510;2023-05-07T06:41:05;14.80;99.90
22698;DHT22;11516;51.612;7.510;2023-05-07T06:43:31;14.80;99.90
22698;DHT22;11516;51.612;7.510;2023-05-07T06:45:57;15.00;99.90
22698;DHT22;11516;51.612;7.510;2023-05-07T06:48:22;15.10;99.90
22698;DHT22;11516;51.612;7.510;2023-05-07T06:50:48;15.10;99.90
22698;DHT22;11516;51.612;7.510;2023-05-07T06:53:13;15.20;99.90
22698;DHT22;11516;51.612;7.510;2023-05-07T06:55:39;15.10;99.90
22698;DHT22;11516;51.612;7.510;2023-05-07T06:58:04;15.00;99.90
22698;DHT22;11516;51.612;7.510;2023-05-07T07:00:31;15.00;99.90
22698;DHT22;11516;51.612;7.510;2023-05-07T07:02:56;15.10;99.90
22698;DHT22;11516;51.612;7.510;2023-05-07T07:05:22;15.00;99.90
22698;DHT22;11516;51.612;7.510;2023-05-07T07:07:48;15.10;99.90
22698;DHT22;11516;51.612;7.510;2023-05-07T07:10:21;15.30;99.90
22698;DHT22;11516;51.612;7.510;2023-05-07T07:12:48;15.30;99.90
22698;DHT22;11516;51.612;7.510;2023-05-07T07:15:14;15.30;99.90
22698;DHT22;11516;51.612;7.510;2023-05-07T07:17:40;15.30;99.90
22698;DHT22;11516;51.612;7.510;2023-05-07T07:20:06;15.30;99.90
22698;DHT22;11516;51.612;7.510;2023-05-07T07:22:32;15.60;99.90
22698;DHT22;11516;51.612;7.510;2023-05-07T07:24:57;15.70;99.90
22698;DHT22;11516;51.612;7.510;2023-05-07T07:27:23;15.60;99.90
22698;DHT22;11516;51.612;7.510;2023-05-07T07:29:49;15.70;99.90
22698;DHT22;11516;51.612;7.510;2023-05-07T07:32:14;15.80;99.90
22698;DHT22;11516;51.612;7.510;2023-05-07T07:34:40;15.80;99.90
22698;DHT22;11516;51.612;7.510;2023-05-07T07:37:05;15.70;99.90
22698;DHT22;11516;51.612;7.510;2023-05-07T07:39:34;15.90;99.90
22698;DHT22;11516;51.612;7.510;2023-05-07T07:42:00;16.00;99.90
22698;DHT22;11516;51.612;7.510;2023-05-07T07:44:27;16.00;99.90
22698;DHT22;11516;51.612;7.510;2023-05-07T07:46:53;16.00;99.90
22698;DHT22;11516;51.612;7.510;2023-05-07T07:49:18;16.00;99.90
22698;DHT22;11516;51.612;7.510;2023-05-07T07:51:44;16.10;99.90
22698;DHT22;11516;51.612;7.510;2023-05-07T07:54:10;16.10;99.90
22698;DHT22;11516;51.612;7.510;2023-05-07T07:56:35;16.00;99.90
22698;DHT22;11516;51.612;7.510;2023-05-07T07:59:01;15.90;99.90
22698;DHT22;11516;51.612;7.510;2023-05-07T08:01:29;15.90;99.90
22698;DHT22;11516;51.612;7.510;2023-05-07T08:03:54;15.90;99.90
22698;DHT22;11516;51.612;7.510;2023-05-07T08:06:20;15.90;99.90
22698;DHT22;11516;51.612;7.510;2023-05-07T08:08:45;15.90;99.90
22698;DHT22;11516;51.612;7.510;2023-05-07T08:11:11;15.90;99.90
22698;DHT22;11516;51.612;7.510;2023-05-07T08:13:38;15.90;99.90
22698;DHT22;11516;51.612;7.510;2023-05-07T08:16:04;15.90;99.90
22698;DHT22;11516;51.612;7.510;2023-05-07T08:18:30;16.00;99.90
22698;DHT22;11516;51.612;7.510;2023-05-07T08:20:55;16.10;99.90
22698;DHT22;11516;51.612;7.510;2023-05-07T08:23:21;16.20;99.90
22698;DHT22;11516;51.612;7.510;2023-05-07T08:25:48;16.30;99.90
22698;DHT22;11516;51.612;7.510;2023-05-07T08:28:14;16.40;99.90
22698;DHT22;11516;51.612;7.510;2023-05-07T08:30:40;16.40;99.90
22698;DHT22;11516;51.612;7.510;2023-05-07T08:33:06;16.30;99.90
22698;DHT22;11516;51.612;7.510;2023-05-07T08:35:31;16.30;99.90
22698;DHT22;11516;51.612;7.510;2023-05-07T08:37:57;16.20;99.90
22698;DHT22;11516;51.612;7.510;2023-05-07T08:40:26;16.20;99.90
22698;DHT22;11516;51.612;7.510;2023-05-07T08:42:56;16.20;99.90
22698;DHT22;11516;51.612;7.510;2023-05-07T08:45:23;16.20;99.90
22698;DHT22;11516;51.612;7.510;2023-05-07T08:47:54;16.40;99.90
22698;DHT22;11516;51.612;7.510;2023-05-07T08:50:21;16.40;99.90
22698;DHT22;11516;51.612;7.510;2023-05-07T08:52:47;16.60;99.90
22698;DHT22;11516;51.612;7.510;2023-05-07T08:55:13;16.70;99.90
22698;DHT22;11516;51.612;7.510;2023-05-07T08:57:39;16.80;99.90
22698;DHT22;11516;51.612;7.510;2023-05-07T09:00:05;16.80;99.90
22698;DHT22;11516;51.612;7.510;2023-05-07T09:02:33;16.70;99.90
22698;DHT22;11516;51.612;7.510;2023-05-07T09:05:00;16.80;99.90
22698;DHT22;11516;51.612;7.510;2023-05-07T09:07:25;16.90;99.90
22698;DHT22;11516;51.612;7.510;2023-05-07T09:09:52;16.80;99.90
22698;DHT22;11516;51.612;7.510;2023-05-07T09:12:18;17.00;99.90
22698;DHT22;11516;51.612;7.510;2023-05-07T09:14:44;17.10;99.90
22698;DHT22;11516;51.612;7.510;2023-05-07T09:17:11;17.10;99.90
22698;DHT22;11516;51.612;7.510;2023-05-07T09:19:36;17.20;99.90
22698;DHT22;11516;51.612;7.510;2023-05-07T09:22:04;17.20;99.90
22698;DHT22;11516;51.612;7.510;2023-05-07T09:24:30;17.20;99.90
22698;DHT22;11516;51.612;7.510;2023-05-07T09:27:00;17.30;99.90
22698;DHT22;11516;51.612;7.510;2023-05-07T09:29:26;17.30;99.90
22698;DHT22;11516;51.612;7.510;2023-05-07T09:31:54;17.40;99.90
22698;DHT22;11516;51.612;7.510;2023-05-07T09:34:20;17.50;99.90
22698;DHT22;11516;51.612;7.510;2023-05-07T09:36:46;17.40;99.90
22698;DHT22;11516;51.612;7.510;2023-05-07T09:39:12;17.30;99.90
22698;DHT22;11516;51.612;7.510;2023-05-07T09:41:47;17.60;99.90
22698;DHT22;11516;51.612;7.510;2023-05-07T09:44:14;17.60;99.90
22698;DHT22;11516;51.612;7.510;2023-05-07T09:46:43;18.00;99.90
22698;DHT22;11516;51.612;7.510;2023-05-07T09:49:22;18.00;99.90
22698;DHT22;11516;51.612;7.510;2023-05-07T09:51:50;18.00;99.90
22698;DHT22;11516;51.612;7.510;2023-05-07T09:54:17;18.00;99.90
22698;DHT22;11516;51.612;7.510;2023-05-07T09:56:45;17.90;99.90
22698;DHT22;11516;51.612;7.510;2023-05-07T09:59:14;17.80;99.90
22698;DHT22;11516;51.612;7.510;2023-05-07T10:01:41;17.80;99.90
22698;DHT22;11516;51.612;7.510;2023-05-07T10:04:07;17.90;99.90
22698;DHT22;11516;51.612;7.510;2023-05-07T10:06:34;17.80;99.90
22698;DHT22;11516;51.612;7.510;2023-05-07T10:09:00;17.80;99.90
22698;DHT22;11516;51.612;7.510;2023-05-07T10:11:26;17.80;99.90
22698;DHT22;11516;51.612;7.510;2023-05-07T10:13:53;18.00;99.90
22698;DHT22;11516;51.612;7.510;2023-05-07T10:16:19;18.30;99.90
22698;DHT22;11516;51.612;7.510;2023-05-07T10:18:45;18.40;99.90
22698;DHT22;11516;51.612;7.510;2023-05-07T10:21:16;18.60;99.90
22698;DHT22;11516;51.612;7.510;2023-05-07T10:23:45;18.80;99.90
22698;DHT22;11516;51.612;7.510;2023-05-07T10:26:14;19.10;99.90
22698;DHT22;11516;51.612;7.510;2023-05-07T10:28:49;19.50;99.90
22698;DHT22;11516;51.612;7.510;2023-05-07T10:31:48;19.40;99.90
22698;DHT22;11516;51.612;7.510;2023-05-07T10:34:21;19.60;99.90
22698;DHT22;11516;51.612;7.510;2023-05-07T10:36:48;19.70;99.90
22698;DHT22;11516;51.612;7.510;2023-05-07T10:39:15;19.80;99.90
22698;DHT22;11516;51.612;7.510;2023-05-07T10:41:41;19.80;99.90
22698;DHT22;11516;51.612;7.510;2023-05-07T10:44:06;20.00;99.90
22698;DHT22;11516;51.612;7.510;2023-05-07T10:46:32;20.20;99.90
22698;DHT22;11516;51.612;7.510;2023-05-07T10:51:26;20.30;99.90
22698;DHT22;11516;51.612;7.510;2023-05-07T10:56:43;20.80;99.90
22698;DHT22;11516;51.612;7.510;2023-05-07T11:01:57;21.00;99.90
22698;DHT22;11516;51.612;7.510;2023-05-07T11:04:23;21.30;99.90
22698;DHT22;11516;51.612;7.510;2023-05-07T11:12:17;22.20;99.90
22698;DHT22;11516;51.612;7.510;2023-05-07T11:14:43;22.30;99.90
22698;DHT22;11516;51.612;7.510;2023-05-07T11:17:10;22.70;99.90
22698;DHT22;11516;51.612;7.510;2023-05-07T11:19:55;23.10;99.90
22698;DHT22;11516;51.612;7.510;2023-05-07T11:25:05;22.80;99.90
22698;DHT22;11516;51.612;7.510;2023-05-07T11:27:32;22.90;99.90
22698;DHT22;11516;51.612;7.510;2023-05-07T11:29:57;23.00;99.90
22698;DHT22;11516;51.612;7.510;2023-05-07T11:32:31;23.00;99.90
22698;DHT22;11516;51.612;7.510;2023-05-07T11:34:59;23.40;99.90
22698;DHT22;11516;51.612;7.510;2023-05-07T11:37:26;23.90;99.90
22698;DHT22;11516;51.612;7.510;2023-05-07T11:40:03;24.40;99.90
22698;DHT22;11516;51.612;7.510;2023-05-07T11:42:36;24.70;99.90
22698;DHT22;11516;51.612;7.510;2023-05-07T11:45:06;25.00;99.90
22698;DHT22;11516;51.612;7.510;2023-05-07T11:47:33;25.50;99.90
22698;DHT22;11516;51.612;7.510;2023-05-07T11:50:08;25.90;99.90
22698;DHT22;11516;51.612;7.510;2023-05-07T11:52:34;26.20;99.90
22698;DHT22;11516;51.612;7.510;2023-05-07T11:55:02;26.10;97.80
22698;DHT22;11516;51.612;7.510;2023-05-07T11:57:28;26.40;97.60
22698;DHT22;11516;51.612;7.510;2023-05-07T11:59:55;26.70;95.40
22698;DHT22;11516;51.612;7.510;2023-05-07T12:02:21;26.40;95.10
22698;DHT22;11516;51.612;7.510;2023-05-07T12:04:46;25.80;96.00
22698;DHT22;11516;51.612;7.510;2023-05-07T12:07:13;25.90;96.80
22698;DHT22;11516;51.612;7.510;2023-05-07T12:09:39;25.80;94.00
22698;DHT22;11516;51.612;7.510;2023-05-07T12:12:08;26.00;95.80
22698;DHT22;11516;51.612;7.510;2023-05-07T12:14:38;26.10;94.30
22698;DHT22;11516;51.612;7.510;2023-05-07T12:17:04;26.00;94.20
22698;DHT22;11516;51.612;7.510;2023-05-07T12:19:31;25.70;94.40
22698;DHT22;11516;51.612;7.510;2023-05-07T12:21:57;26.10;93.40
22698;DHT22;11516;51.612;7.510;2023-05-07T12:24:23;26.10;92.80
22698;DHT22;11516;51.612;7.510;2023-05-07T12:26:48;25.50;94.20
22698;DHT22;11516;51.612;7.510;2023-05-07T12:29:14;25.10;95.40
22698;DHT22;11516;51.612;7.510;2023-05-07T12:31:41;25.00;95.20
22698;DHT22;11516;51.612;7.510;2023-05-07T12:34:07;24.80;94.90
22698;DHT22;11516;51.612;7.510;2023-05-07T12:36:42;24.20;97.40
22698;DHT22;11516;51.612;7.510;2023-05-07T12:39:08;23.70;99.20
22698;DHT22;11516;51.612;7.510;2023-05-07T12:41:53;23.30;99.90
22698;DHT22;11516;51.612;7.510;2023-05-07T12:44:22;23.00;99.90
22698;DHT22;11516;51.612;7.510;2023-05-07T12:46:47;22.60;99.90
22698;DHT22;11516;51.612;7.510;2023-05-07T12:49:13;22.30;99.90
22698;DHT22;11516;51.612;7.510;2023-05-07T12:51:38;22.20;99.90
22698;DHT22;11516;51.612;7.510;2023-05-07T12:54:04;22.00;99.90
22698;DHT22;11516;51.612;7.510;2023-05-07T12:59:40;22.00;99.90
22698;DHT22;11516;51.612;7.510;2023-05-07T13:02:06;22.20;99.90
22698;DHT22;11516;51.612;7.510;2023-05-07T13:04:32;22.10;99.90
22698;DHT22;11516;51.612;7.510;2023-05-07T13:06:59;22.10;99.90
22698;DHT22;11516;51.612;7.510;2023-05-07T13:09:24;22.20;99.90
22698;DHT22;11516;51.612;7.510;2023-05-07T13:11:50;22.20;99.90
22698;DHT22;11516;51.612;7.510;2023-05-07T13:14:15;22.00;99.90
22698;DHT22;11516;51.612;7.510;2023-05-07T13:16:41;22.00;99.90
22698;DHT22;11516;51.612;7.510;2023-05-07T13:19:07;21.90;99.90
22698;DHT22;11516;51.612;7.510;2023-05-07T13:21:32;21.80;99.90
22698;DHT22;11516;51.612;7.510;2023-05-07T13:23:58;21.70;99.90
22698;DHT22;11516;51.612;7.510;2023-05-07T13:26:24;21.80;99.90
22698;DHT22;11516;51.612;7.510;2023-05-07T13:28:50;21.60;99.90
22698;DHT22;11516;51.612;7.510;2023-05-07T13:31:16;21.50;99.90
22698;DHT22;11516;51.612;7.510;2023-05-07T13:33:42;21.50;99.90
22698;DHT22;11516;51.612;7.510;2023-05-07T13:36:07;21.40;99.90
22698;DHT22;11516;51.612;7.510;2023-05-07T13:38:33;21.20;99.90
22698;DHT22;11516;51.612;7.510;2023-05-07T13:40:58;21.20;99.90
22698;DHT22;11516;51.612;7.510;2023-05-07T13:43:24;21.10;99.90
22698;DHT22;11516;51.612;7.510;2023-05-07T13:45:50;21.10;99.90
22698;DHT22;11516;51.612;7.510;2023-05-07T13:48:15;21.10;99.90
22698;DHT22;11516;51.612;7.510;2023-05-07T13:50:41;21.20;99.90
22698;DHT22;11516;51.612;7.510;2023-05-07T13:53:07;21.20;99.90
22698;DHT22;11516;51.612;7.510;2023-05-07T13:55:33;21.10;99.90
22698;DHT22;11516;51.612;7.510;2023-05-07T13:58:00;21.20;99.90
22698;DHT22;11516;51.612;7.510;2023-05-07T14:00:27;21.20;99.90
22698;DHT22;11516;51.612;7.510;2023-05-07T14:02:53;21.10;99.90
22698;DHT22;11516;51.612;7.510;2023-05-07T14:05:19;21.20;99.90
22698;DHT22;11516;51.612;7.510;2023-05-07T14:07:45;21.30;99.90
22698;DHT22;11516;51.612;7.510;2023-05-07T14:10:10;21.40;99.90
22698;DHT22;11516;51.612;7.510;2023-05-07T14:12:36;21.50;99.90
22698;DHT22;11516;51.612;7.510;2023-05-07T14:15:03;21.50;99.90
22698;DHT22;11516;51.612;7.510;2023-05-07T14:17:28;21.40;99.90
22698;DHT22;11516;51.612;7.510;2023-05-07T14:19:54;21.50;99.90
22698;DHT22;11516;51.612;7.510;2023-05-07T14:22:21;21.60;99.90
22698;DHT22;11516;51.612;7.510;2023-05-07T14:24:47;21.80;99.90
22698;DHT22;11516;51.612;7.510;2023-05-07T14:27:12;21.80;99.90
22698;DHT22;11516;51.612;7.510;2023-05-07T14:29:38;21.90;99.90
22698;DHT22;11516;51.612;7.510;2023-05-07T14:32:03;21.90;99.90
22698;DHT22;11516;51.612;7.510;2023-05-07T14:34:29;21.90;99.90
22698;DHT22;11516;51.612;7.510;2023-05-07T14:36:55;21.80;99.90
22698;DHT22;11516;51.612;7.510;2023-05-07T14:39:21;21.70;99.90
22698;DHT22;11516;51.612;7.510;2023-05-07T14:41:47;21.80;99.90
22698;DHT22;11516;51.612;7.510;2023-05-07T14:44:12;21.80;99.90
22698;DHT22;11516;51.612;7.510;2023-05-07T14:46:38;21.90;99.90
22698;DHT22;11516;51.612;7.510;2023-05-07T14:49:03;21.80;99.90
22698;DHT22;11516;51.612;7.510;2023-05-07T14:51:29;21.80;99.90
22698;DHT22;11516;51.612;7.510;2023-05-07T14:53:56;21.90;99.90
22698;DHT22;11516;51.612;7.510;2023-05-07T14:56:21;21.90;99.90
22698;DHT22;11516;51.612;7.510;2023-05-07T14:58:48;21.80;99.90
22698;DHT22;11516;51.612;7.510;2023-05-07T15:01:16;21.70;99.90
22698;DHT22;11516;51.612;7.510;2023-05-07T15:03:42;21.60;99.90
22698;DHT22;11516;51.612;7.510;2023-05-07T15:06:07;21.60;99.90
22698;DHT22;11516;51.612;7.510;2023-05-07T15:08:33;21.70;99.90
22698;DHT22;11516;51.612;7.510;2023-05-07T15:10:58;21.70;99.90
22698;DHT22;11516;51.612;7.510;2023-05-07T15:13:24;21.70;99.90
22698;DHT22;11516;51.612;7.510;2023-05-07T15:15:49;21.60;99.90
22698;DHT22;11516;51.612;7.510;2023-05-07T15:18:15;21.60;99.90
22698;DHT22;11516;51.612;7.510;2023-05-07T15:20:41;21.50;99.90
22698;DHT22;11516;51.612;7.510;2023-05-07T15:23:08;21.50;99.90
22698;DHT22;11516;51.612;7.510;2023-05-07T15:25:38;21.30;99.90
22698;DHT22;11516;51.612;7.510;2023-05-07T15:28:03;21.10;99.90
22698;DHT22;11516;51.612;7.510;2023-05-07T15:30:29;20.90;99.90
22698;DHT22;11516;51.612;7.510;2023-05-07T15:32:55;20.90;99.90
22698;DHT22;11516;51.612;7.510;2023-05-07T15:35:21;20.90;99.90
22698;DHT22;11516;51.612;7.510;2023-05-07T15:37:48;20.90;99.90
22698;DHT22;11516;51.612;7.510;2023-05-07T15:40:15;20.90;99.90
22698;DHT22;11516;51.612;7.510;2023-05-07T15:42:40;20.80;99.90
22698;DHT22;11516;51.612;7.510;2023-05-07T15:45:06;20.70;99.90